White City, OR

4:31 PM PST on December 24, 2014 (GMT -0800)
Eagle creek | Change Station
CLOSE
Current Station
Personal Weather Station
Location: White City, OR
Elevation: 1342 ft
Nearby Weather Stations

Elev 1342 ft 42.44 °N, 122.83 °W | Updated 5 seconds ago

Overcast
Overcast
41.7 °F
Feels Like 38 °F
N
5.8
Wind Variable Wind from WNW
Gusts 6.8 mph

Today
High -- | Low -- °F
--% Chance of Precip.
Yesterday
High -- | Low -- °F
Precip. -- in
7:38 AM 4:43 PM
Waxing Crescent, 12% visible
Pressure 30.07 in
Visibility 10.0 miles
Clouds Few 2700 ft
Scattered Clouds 4200 ft
Mostly Cloudy 4900 ft
Windchill 38 °F
Dew Point 37 °F
Humidity 83%
Rainfall 0.44 in
Snow Depth Not available.
UV 0 out of 12
Pollen .60 out of 12
Air Quality Not available.
Flu Activity Not available.
METAR KMFR 242353Z AUTO 30008KT 10SM FEW027 SCT042 BKN049 06/03 A3006 RMK AO2 RAE51 SLP182 P0000 60028 T00610033 10078 20050 53035

More Conditions Fewer Conditions

Pressure 30.07 in
Visibility 10.0 miles
Clouds Few 2700 ft
Scattered Clouds 4200 ft
Mostly Cloudy 4900 ft
Windchill 38 °F
Dew Point 37 °F
Humidity 83%
Rainfall 0.44 in
Snow Depth Not available.
UV 0 out of 12
Pollen .60 out of 12
Air Quality Not available.
Flu Activity Not available.
METAR KMFR 242353Z AUTO 30008KT 10SM FEW027 SCT042 BKN049 06/03 A3006 RMK AO2 RAE51 SLP182 P0000 60028 T00610033 10078 20050 53035

More Conditions Fewer Conditions

10-Day Weather Forecast

Almanac

Astronomy

Dec. 24, 2014 Rise Set
Actual Time
Civil Twilight
Nautical Twilight
Astronomical Twilight
Moon
Length of Visible Light
Length of Day
Tomorrow will be .
, % of the Moon is Illuminated

Today's Extremes

State Highs State Lows

Community

WunderPhotos

Upload Photos

1,780,194 photos uploaded!

WunderBlogs® & News

Nearby

Air Quality

  Air Quality AQ Index Pollutant
Not available.

Snow Depth

Station Depth Elevation

Earthquake Activity

City Distance Mag. Time & Date
Minimum magnitude displayed is 2.5.

Coastal Water Temperatures

Place Temperature

Nearby Weather Stations